Time;durP1;ratioP1;P1;durP2;ratioP2;P2;SDS_P1;SDS_P2;PMS_P1;PMS_P2;Temp;Humidity;BMP_temperature;BMP_pressure;BME280_temperature;BME280_humidity;BME280_pressure;Samples;Min_cycle;Max_cycle;Signal;HPM_P1;HPM_P2
2022/05/03 00:01:26;;;;;;;26.83;18.40;;;27.60;99.90;;;;;;5071786;28;20043;-64
2022/05/03 00:04:16;;;;;;;32.08;16.60;;;27.50;99.90;;;;;;5069480;28;20368;-62
2022/05/03 00:07:08;;;;;;;34.22;23.30;;;27.50;99.90;;;;;;5072491;28;20056;-63
2022/05/03 00:09:57;;;;;;;40.30;24.45;;;27.40;99.90;;;;;;5071453;28;20041;-64
2022/05/03 00:12:35;;;;;;;40.10;22.55;;;27.40;99.90;;;;;;5070321;28;20068;-63
2022/05/03 00:15:04;;;;;;;32.65;20.35;;;27.30;99.90;;;;;;5073662;28;20024;-64
2022/05/03 00:17:32;;;;;;;28.60;18.30;;;27.30;99.90;;;;;;5066238;28;20400;-63
2022/05/03 00:19:59;;;;;;;34.30;21.27;;;27.30;99.90;;;;;;5072338;28;20020;-65
2022/05/03 00:22:27;;;;;;;47.33;27.58;;;27.30;99.90;;;;;;5072419;28;20020;-65
2022/05/03 00:24:55;;;;;;;65.05;42.75;;;27.40;99.90;;;;;;5072905;28;20029;-63
2022/05/03 00:27:25;;;;;;;54.80;33.00;;;27.40;99.90;;;;;;5073000;28;20028;-68
2022/05/03 00:29:53;;;;;;;50.53;29.55;;;27.50;99.90;;;;;;5068686;28;20035;-64
2022/05/03 00:32:26;;;;;;;29.15;18.73;;;27.60;99.90;;;;;;5072409;28;20027;-65
2022/05/03 00:34:53;;;;;;;;;;;27.60;99.90;;;;;;5071659;28;20079;-71
2022/05/03 00:37:20;;;;;;;43.72;26.42;;;27.70;99.90;;;;;;5073142;28;19947;-67
2022/05/03 00:39:47;;;;;;;27.75;17.38;;;27.70;99.90;;;;;;5073246;28;20598;-68
2022/05/03 00:42:21;;;;;;;36.00;19.67;;;27.70;99.90;;;;;;5062240;28;20128;-71
2022/05/03 00:44:59;;;;;;;22.88;16.65;;;27.80;99.90;;;;;;5072923;28;20063;-65
2022/05/03 00:47:32;;;;;;;26.23;16.33;;;27.80;99.90;;;;;;5072247;28;20091;-67
2022/05/03 00:50:06;;;;;;;36.30;20.52;;;27.90;99.90;;;;;;5073073;28;20547;-66
2022/05/03 00:52:47;;;;;;;23.63;17.08;;;28.00;99.90;;;;;;5054142;28;20052;-66
2022/05/03 00:55:30;;;;;;;33.00;19.13;;;28.00;99.90;;;;;;5073303;28;20139;-66
2022/05/03 00:58:08;;;;;;;;;;;28.10;99.90;;;;;;5073082;28;20081;-68
2022/05/03 01:00:35;;;;;;;35.35;24.27;;;28.20;99.90;;;;;;5071980;28;19912;-66
2022/05/03 01:03:18;;;;;;;51.70;33.42;;;28.20;99.90;;;;;;5066576;28;20369;-66
2022/05/03 01:05:57;;;;;;;36.20;26.85;;;28.30;99.90;;;;;;5072485;28;20481;-66
2022/05/03 01:08:55;;;;;;;30.88;22.05;;;28.40;99.90;;;;;;5072508;28;20071;-69
2022/05/03 01:11:33;;;;;;;33.80;25.23;;;28.50;99.90;;;;;;5072975;28;20370;-65
2022/05/03 01:14:05;;;;;;;25.85;18.88;;;28.60;99.90;;;;;;5071743;28;20089;-64
2022/05/03 01:16:40;;;;;;;31.65;18.27;;;28.60;99.90;;;;;;5068110;28;20021;-64
2022/05/03 01:19:32;;;;;;;25.25;17.85;;;28.70;99.90;;;;;;5070781;28;20143;-63
2022/05/03 01:22:16;;;;;;;24.33;18.05;;;28.60;99.90;;;;;;5071135;28;20454;-65
2022/05/03 01:24:57;;;;;;;39.30;24.70;;;28.70;99.90;;;;;;5072659;28;20043;-65
2022/05/03 01:27:41;;;;;;;31.10;21.25;;;28.80;99.90;;;;;;5075944;28;20055;-65
2022/05/03 01:30:11;;;;;;;32.20;19.27;;;29.00;99.90;;;;;;5074915;28;20473;-63
2022/05/03 01:32:46;;;;;;;20.95;16.48;;;29.00;99.90;;;;;;5074407;28;20047;-64
2022/05/03 01:35:14;;;;;;;40.70;32.92;;;29.10;99.90;;;;;;5073806;28;20373;-63
2022/05/03 01:38:04;;;;;;;21.58;14.13;;;29.20;99.90;;;;;;5075700;28;20511;-63
2022/05/03 01:40:52;;;;;;;17.58;12.60;;;29.20;99.90;;;;;;5071888;28;20043;-62
2022/05/03 01:43:41;;;;;;;22.20;14.45;;;29.20;99.90;;;;;;5074861;28;20112;-63
2022/05/03 01:46:21;;;;;;;78.15;46.05;;;29.30;99.90;;;;;;5074577;28;20034;-63
2022/05/03 01:52:04;;;;;;;63.97;49.72;;;29.40;99.90;;;;;;5074235;28;20549;-63
2022/05/03 01:54:53;;;;;;;32.60;20.42;;;29.60;99.90;;;;;;5072240;28;20044;-63
2022/05/03 01:57:32;;;;;;;23.38;16.83;;;29.60;99.90;;;;;;5072734;28;20161;-63
2022/05/03 02:00:08;;;;;;;19.13;14.27;;;29.70;99.90;;;;;;5075255;28;20385;-66
2022/05/03 02:03:02;;;;;;;33.80;22.08;;;29.70;99.90;;;;;;5074123;28;20380;-64
2022/05/03 02:05:51;;;;;;;21.23;16.17;;;29.70;99.90;;;;;;5059052;28;20091;-63
2022/05/03 02:08:21;;;;;;;18.63;15.15;;;29.80;99.90;;;;;;5070769;28;20033;-66
2022/05/03 02:10:58;;;;;;;25.77;17.63;;;30.10;99.90;;;;;;5075696;28;20094;-63
2022/05/03 02:16:28;;;;;;;27.42;15.55;;;30.10;99.90;;;;;;5063348;28;20116;-65
2022/05/03 02:19:25;;;;;;;25.27;17.45;;;30.30;99.90;;;;;;5065296;28;20032;-64
2022/05/03 02:22:21;;;;;;;47.90;32.00;;;30.20;99.90;;;;;;5055919;28;20017;-66
2022/05/03 02:25:08;;;;;;;29.13;22.90;;;30.20;99.90;;;;;;5067481;28;20021;-66
2022/05/03 02:27:38;;;;;;;34.85;25.70;;;30.20;99.90;;;;;;5056144;28;20029;-63
2022/05/03 02:30:06;;;;;;;36.35;24.55;;;30.40;99.90;;;;;;5073502;28;20055;-63
2022/05/03 02:32:42;;;;;;;23.10;17.60;;;30.50;99.90;;;;;;5056351;28;20029;-63
2022/05/03 02:35:13;;;;;;;32.38;19.90;;;30.70;99.90;;;;;;5054772;28;20043;-63
2022/05/03 02:37:48;;;;;;;24.63;16.05;;;30.60;99.90;;;;;;5073626;28;20046;-65
2022/05/03 02:40:19;;;;;;;39.45;28.48;;;30.60;99.90;;;;;;5065031;28;20082;-64
2022/05/03 02:42:46;;;;;;;43.75;35.22;;;30.60;99.90;;;;;;5084111;28;20024;-64
2022/05/03 02:45:13;;;;;;;60.42;37.75;;;30.60;99.90;;;;;;5067164;28;20462;-64
2022/05/03 02:47:59;;;;;;;87.28;53.85;;;30.60;99.90;;;;;;5074035;28;20032;-63
2022/05/03 02:50:30;;;;;;;39.47;26.20;;;30.60;99.90;;;;;;5075873;28;20020;-63
2022/05/03 02:53:09;;;;;;;50.30;35.92;;;30.70;99.90;;;;;;5095522;28;20052;-64
2022/05/03 02:55:40;;;;;;;23.42;18.55;;;30.70;99.90;;;;;;5075755;28;20104;-64
2022/05/03 02:58:10;;;;;;;21.60;18.20;;;30.80;99.90;;;;;;5074336;28;20481;-63
2022/05/03 03:03:31;;;;;;;24.23;18.98;;;30.70;99.90;;;;;;5074300;28;20106;-66
2022/05/03 03:06:02;;;;;;;31.20;21.08;;;30.70;99.90;;;;;;5071367;28;20500;-63
2022/05/03 03:08:37;;;;;;;20.63;18.48;;;30.70;99.90;;;;;;5074193;28;20027;-64
2022/05/03 03:11:07;;;;;;;64.40;38.95;;;30.70;99.90;;;;;;5074595;28;20028;-64
2022/05/03 03:13:41;;;;;;;58.40;37.03;;;30.80;99.90;;;;;;5072601;28;20050;-60
2022/05/03 03:16:12;;;;;;;41.75;27.83;;;30.80;99.90;;;;;;5073568;28;20035;-63
2022/05/03 03:18:42;;;;;;;30.55;20.58;;;30.80;99.90;;;;;;5080691;28;20031;-61
2022/05/03 03:21:14;;;;;;;24.52;19.65;;;30.70;99.90;;;;;;5076572;28;20021;-65
2022/05/03 03:23:41;;;;;;;33.15;22.45;;;30.80;99.90;;;;;;5074619;28;20481;-64
2022/05/03 03:26:11;;;;;;;45.70;28.10;;;30.80;99.90;;;;;;5067346;28;20048;-64
2022/05/03 03:28:38;;;;;;;23.85;19.60;;;31.00;99.90;;;;;;5069871;28;20032;-63
2022/05/03 03:31:07;;;;;;;28.83;20.10;;;31.10;99.90;;;;;;5074401;28;20054;-65
2022/05/03 03:33:35;;;;;;;22.10;17.75;;;31.30;99.90;;;;;;5073648;28;20093;-66
2022/05/03 03:36:05;;;;;;;31.92;21.80;;;31.50;99.90;;;;;;5070958;28;20095;-62
2022/05/03 03:38:38;;;;;;;27.67;18.13;;;31.50;99.90;;;;;;5073721;28;20068;-60
2022/05/03 03:41:06;;;;;;;29.02;17.90;;;31.60;99.90;;;;;;5073474;28;20052;-63
2022/05/03 03:43:32;;;;;;;17.40;13.32;;;31.70;99.90;;;;;;5070724;28;20436;-61
2022/05/03 03:45:59;;;;;;;13.93;10.70;;;31.70;99.90;;;;;;5054301;28;20029;-61
2022/05/03 03:48:26;;;;;;;14.10;10.88;;;31.70;99.90;;;;;;5069939;28;20107;-62
2022/05/03 03:50:58;;;;;;;18.02;13.32;;;31.80;99.90;;;;;;5074115;28;20105;-62
2022/05/03 03:53:26;;;;;;;14.32;10.65;;;31.80;99.90;;;;;;5073962;28;20044;-63
2022/05/03 03:55:53;;;;;;;12.70;10.48;;;31.90;99.90;;;;;;5072624;28;20087;-64
2022/05/03 03:58:20;;;;;;;17.42;13.15;;;32.00;99.90;;;;;;5074173;28;20100;-63
2022/05/03 04:00:47;;;;;;;17.60;12.20;;;31.90;99.90;;;;;;5073761;28;20044;-62
2022/05/03 04:03:15;;;;;;;15.45;11.93;;;32.00;99.90;;;;;;5073994;28;20115;-64
2022/05/03 04:05:44;;;;;;;11.48;9.02;;;32.00;99.90;;;;;;5073857;28;20043;-62
2022/05/03 04:08:11;;;;;;;12.45;9.18;;;32.10;99.90;;;;;;5074094;28;20012;-65
2022/05/03 04:10:37;;;;;;;14.07;11.98;;;32.30;99.90;;;;;;5074146;28;20420;-64
2022/05/03 04:13:05;;;;;;;19.58;12.73;;;32.80;99.90;;;;;;5060648;28;20067;-62
2022/05/03 04:15:33;;;;;;;18.98;12.45;;;32.70;99.90;;;;;;5053849;28;20412;-62
2022/05/03 04:18:01;;;;;;;16.63;12.77;;;32.60;99.50;;;;;;5054026;28;20037;-64
2022/05/03 04:20:28;;;;;;;23.10;12.93;;;32.70;99.90;;;;;;5054004;28;20025;-63
2022/05/03 04:22:54;;;;;;;15.80;12.75;;;32.80;99.90;;;;;;5064857;28;20384;-63
2022/05/03 04:25:21;;;;;;;13.88;9.07;;;32.80;99.30;;;;;;5073971;28;20029;-65
2022/05/03 04:27:47;;;;;;;14.05;9.95;;;32.70;98.40;;;;;;5073856;28;20500;-64
2022/05/03 04:30:14;;;;;;;15.15;10.85;;;32.60;98.70;;;;;;5059609;28;20040;-62
2022/05/03 04:32:41;;;;;;;6.78;3.35;;;32.60;98.20;;;;;;5053734;28;20055;-63
2022/05/03 04:35:08;;;;;;;9.50;3.92;;;32.10;94.30;;;;;;5086289;28;20439;-63
2022/05/03 04:37:35;;;;;;;12.35;4.93;;;31.60;95.90;;;;;;5075862;28;20037;-64
2022/05/03 04:40:01;;;;;;;14.50;4.10;;;31.20;97.20;;;;;;5073907;28;20424;-63
2022/05/03 04:42:28;;;;;;;11.10;4.10;;;30.90;96.80;;;;;;5073715;28;20052;-65
2022/05/03 04:44:55;;;;;;;9.77;3.30;;;30.70;97.90;;;;;;5073434;28;20024;-63
2022/05/03 04:47:21;;;;;;;3.80;2.42;;;30.60;98.30;;;;;;5074692;28;20095;-65
2022/05/03 04:49:48;;;;;;;6.22;2.53;;;30.40;98.40;;;;;;5073722;28;20103;-64
2022/05/03 04:52:15;;;;;;;4.03;2.03;;;30.30;98.70;;;;;;5073703;28;20098;-64
2022/05/03 04:54:42;;;;;;;7.97;2.33;;;30.10;99.90;;;;;;5073293;28;20386;-64
2022/05/03 04:57:09;;;;;;;6.00;2.42;;;29.90;99.90;;;;;;5071580;28;20070;-65
2022/05/03 04:59:38;;;;;;;9.57;7.68;;;29.60;99.90;;;;;;5074071;28;20028;-65
2022/05/03 05:02:05;;;;;;;27.20;18.90;;;29.60;99.90;;;;;;5083540;22;20056;-64
2022/05/03 05:04:31;;;;;;;37.50;29.80;;;29.60;99.90;;;;;;5072513;28;20036;-66
2022/05/03 05:06:58;;;;;;;16.73;11.20;;;29.50;99.90;;;;;;5073616;28;20501;-67
2022/05/03 05:09:25;;;;;;;57.03;45.28;;;29.50;99.90;;;;;;5066313;28;20465;-65
2022/05/03 05:11:51;;;;;;;17.55;13.50;;;29.60;99.90;;;;;;5063011;28;20057;-65
2022/05/03 05:14:20;;;;;;;23.67;17.48;;;29.60;99.90;;;;;;5047312;28;20545;-65
2022/05/03 05:16:48;;;;;;;14.38;11.05;;;29.70;99.90;;;;;;5045314;28;20481;-65
2022/05/03 05:19:16;;;;;;;11.43;6.05;;;29.60;99.90;;;;;;5049567;28;20108;-67
2022/05/03 05:21:43;;;;;;;59.03;50.38;;;29.50;99.90;;;;;;5046237;28;20021;-67
2022/05/03 05:24:11;;;;;;;32.60;23.42;;;29.40;99.90;;;;;;5051609;28;20503;-61
2022/05/03 05:26:39;;;;;;;24.08;19.33;;;29.50;99.90;;;;;;5047463;28;20029;-66
2022/05/03 05:29:05;;;;;;;46.60;39.30;;;29.60;99.90;;;;;;5049570;28;20029;-64
2022/05/03 05:31:32;;;;;;;69.07;56.85;;;29.60;99.90;;;;;;5048088;28;20367;-65
2022/05/03 05:33:59;;;;;;;11.40;6.32;;;29.90;99.90;;;;;;5047483;28;20029;-62
2022/05/03 05:36:26;;;;;;;35.15;27.17;;;29.90;99.90;;;;;;5049071;28;20502;-64
2022/05/03 05:38:53;;;;;;;50.60;39.90;;;30.00;99.90;;;;;;5048766;28;20370;-65
2022/05/03 05:41:20;;;;;;;72.22;56.42;;;30.10;99.90;;;;;;5044237;28;20105;-64
2022/05/03 05:43:47;;;;;;;52.97;42.00;;;30.10;99.90;;;;;;5050865;28;20683;-64
2022/05/03 05:46:14;;;;;;;18.58;12.07;;;30.10;99.90;;;;;;5051376;28;20028;-65
2022/05/03 05:48:41;;;;;;;5.10;3.40;;;30.20;99.90;;;;;;5047343;28;20035;-65
2022/05/03 05:51:08;;;;;;;6.53;4.50;;;30.20;99.90;;;;;;5048876;28;20025;-63
2022/05/03 05:53:34;;;;;;;20.70;16.95;;;30.20;99.90;;;;;;5047955;28;20405;-67
2022/05/03 05:56:03;;;;;;;16.17;9.23;;;30.20;99.90;;;;;;5050467;28;20028;-68
2022/05/03 05:58:30;;;;;;;39.45;34.58;;;30.30;99.90;;;;;;5049581;28;20100;-64
2022/05/03 06:00:57;;;;;;;47.33;38.10;;;30.30;99.90;;;;;;5053621;28;20025;-66
2022/05/03 06:03:26;;;;;;;18.98;15.52;;;30.30;99.90;;;;;;5048420;28;20099;-65
2022/05/03 06:05:52;;;;;;;47.33;37.03;;;30.30;99.90;;;;;;5046440;28;20052;-63
2022/05/03 06:08:19;;;;;;;174.43;124.50;;;30.30;99.90;;;;;;5047734;28;20025;-67
2022/05/03 06:10:46;;;;;;;44.67;38.72;;;30.30;99.90;;;;;;5050141;28;20037;-66
2022/05/03 06:13:13;;;;;;;51.22;41.55;;;30.30;99.90;;;;;;5047079;28;20036;-64
2022/05/03 06:15:40;;;;;;;46.67;39.33;;;30.20;99.90;;;;;;5050866;28;20036;-64
2022/05/03 06:18:09;;;;;;;50.00;37.58;;;30.30;99.90;;;;;;5048636;28;20029;-66
2022/05/03 06:20:36;;;;;;;36.88;32.05;;;30.30;99.90;;;;;;5049289;28;20462;-63
2022/05/03 06:23:04;;;;;;;32.60;25.45;;;30.40;99.90;;;;;;5046589;28;20083;-64
2022/05/03 06:25:31;;;;;;;23.05;15.50;;;30.40;99.90;;;;;;5038094;28;20044;-67
2022/05/03 06:27:57;;;;;;;14.02;10.55;;;30.30;99.90;;;;;;5053411;28;20398;-64
2022/05/03 06:30:24;;;;;;;41.88;28.90;;;30.30;99.90;;;;;;5053203;28;20082;-67
2022/05/03 06:32:51;;;;;;;48.97;24.60;;;30.30;99.90;;;;;;5040893;28;20125;-62
2022/05/03 06:35:18;;;;;;;17.90;14.40;;;30.30;99.90;;;;;;5043353;28;20405;-63
2022/05/03 06:37:45;;;;;;;21.58;15.93;;;30.30;99.90;;;;;;5046969;28;20029;-64
2022/05/03 06:40:12;;;;;;;55.75;41.92;;;30.30;99.90;;;;;;5049217;28;20028;-63
2022/05/03 06:42:40;;;;;;;76.32;60.80;;;30.40;99.90;;;;;;5046435;28;20067;-64
2022/05/03 06:45:08;;;;;;;92.03;74.75;;;30.40;99.90;;;;;;5047387;28;20497;-65
2022/05/03 06:47:35;;;;;;;69.72;57.70;;;30.50;99.90;;;;;;5052690;28;20051;-62
2022/05/03 06:50:02;;;;;;;78.25;64.93;;;30.50;99.90;;;;;;5052815;28;20033;-64
2022/05/03 06:52:29;;;;;;;87.57;69.93;;;30.60;99.90;;;;;;5047077;28;20489;-64
2022/05/03 06:54:56;;;;;;;47.33;39.45;;;30.60;99.90;;;;;;5051134;28;20109;-63
2022/05/03 06:57:23;;;;;;;30.33;22.95;;;30.60;99.90;;;;;;5051346;28;20084;-65
2022/05/03 06:59:50;;;;;;;74.88;58.45;;;30.60;99.90;;;;;;5041986;28;20041;-62
2022/05/03 07:02:16;;;;;;;40.15;29.70;;;30.70;99.90;;;;;;5046368;28;20574;-62
2022/05/03 07:04:44;;;;;;;20.63;14.88;;;30.70;99.90;;;;;;5045155;28;20045;-62
2022/05/03 07:07:11;;;;;;;22.33;18.48;;;30.70;99.90;;;;;;5048963;28;20106;-62
2022/05/03 07:09:38;;;;;;;16.05;11.25;;;30.70;99.90;;;;;;5052786;28;20031;-67
2022/05/03 07:12:06;;;;;;;24.45;18.42;;;30.60;99.90;;;;;;5044511;28;20466;-63
2022/05/03 07:14:33;;;;;;;77.75;48.95;;;30.60;99.90;;;;;;5049482;28;20029;-64
2022/05/03 07:16:59;;;;;;;220.70;36.42;;;30.50;99.90;;;;;;5045873;28;20033;-65
2022/05/03 07:24:45;;;;;;;16.40;13.55;;;30.50;99.90;;;;;;5044537;28;20056;-65
2022/05/03 07:27:13;;;;;;;31.35;21.27;;;30.50;99.90;;;;;;5045235;28;20037;-66
2022/05/03 07:29:39;;;;;;;39.83;32.63;;;30.50;99.90;;;;;;5045454;28;20028;-64
2022/05/03 07:32:06;;;;;;;23.70;21.13;;;30.40;99.90;;;;;;5045138;28;20026;-64
2022/05/03 07:34:33;;;;;;;23.48;12.63;;;30.40;99.90;;;;;;5046578;28;20063;-65
2022/05/03 07:37:00;;;;;;;14.10;9.68;;;30.40;99.90;;;;;;5048413;28;20197;-68
2022/05/03 07:39:26;;;;;;;18.52;8.50;;;30.40;99.90;;;;;;5046082;28;20021;-64
2022/05/03 07:41:53;;;;;;;10.43;8.40;;;30.30;99.90;;;;;;5047214;28;20143;-68
2022/05/03 07:44:20;;;;;;;21.92;15.30;;;30.40;99.90;;;;;;5046622;28;20025;-66
2022/05/03 07:46:47;;;;;;;55.35;39.95;;;30.30;99.90;;;;;;5045329;28;20033;-68
2022/05/03 07:49:13;;;;;;;63.20;55.45;;;30.30;99.90;;;;;;5050716;28;20025;-62
2022/05/03 07:51:42;;;;;;;113.90;95.22;;;30.30;99.90;;;;;;5042369;28;20029;-65
2022/05/03 07:54:09;;;;;;;106.43;82.68;;;30.30;99.90;;;;;;5047220;28;20477;-67
2022/05/03 07:56:36;;;;;;;60.33;48.97;;;30.40;99.90;;;;;;5052382;28;20033;-67
2022/05/03 07:59:05;;;;;;;30.02;23.80;;;30.50;99.90;;;;;;5037482;28;20022;-65
2022/05/03 08:01:32;;;;;;;19.92;17.15;;;30.40;99.90;;;;;;5042559;28;20044;-65
2022/05/03 08:03:59;;;;;;;25.63;22.20;;;30.40;99.90;;;;;;5048284;28;20221;-64
2022/05/03 08:06:27;;;;;;;24.33;21.52;;;30.30;99.90;;;;;;5048299;28;20041;-67
2022/05/03 08:08:54;;;;;;;17.77;13.25;;;30.30;99.90;;;;;;5044898;28;20038;-68
2022/05/03 08:11:20;;;;;;;13.68;11.65;;;30.30;99.90;;;;;;5044514;28;20047;-68
2022/05/03 08:13:48;;;;;;;15.02;10.45;;;30.30;99.90;;;;;;5045375;28;20021;-66
2022/05/03 08:16:22;;;;;;;16.52;10.75;;;30.30;99.90;;;;;;5044702;28;20021;-69
2022/05/03 08:18:49;;;;;;;11.20;9.52;;;30.40;99.90;;;;;;5044627;28;20112;-69
2022/05/03 08:21:17;;;;;;;33.75;26.27;;;30.40;99.90;;;;;;5046487;28;20466;-68
2022/05/03 08:23:44;;;;;;;20.92;17.45;;;30.40;99.90;;;;;;5057921;22;20103;-64
2022/05/03 08:26:11;;;;;;;47.47;33.75;;;30.40;99.90;;;;;;5049125;28;20037;-67
2022/05/03 08:28:38;;;;;;;14.75;12.32;;;30.40;99.90;;;;;;5049891;28;20033;-64
2022/05/03 08:31:04;;;;;;;14.52;9.32;;;30.40;99.90;;;;;;5049692;28;20030;-63
2022/05/03 08:33:31;;;;;;;13.45;8.88;;;30.30;99.90;;;;;;5046262;28;20029;-64
2022/05/03 08:35:58;;;;;;;12.48;8.63;;;30.40;99.90;;;;;;5048758;28;20029;-64
2022/05/03 08:43:42;;;;;;;33.58;22.60;;;30.30;99.90;;;;;;5050081;28;20049;-63
2022/05/03 08:46:09;;;;;;;20.95;16.05;;;30.30;99.90;;;;;;5046681;28;20111;-64
2022/05/03 08:48:40;;;;;;;29.00;21.42;;;30.30;99.90;;;;;;5050417;28;20025;-65
2022/05/03 08:51:11;;;;;;;16.85;12.82;;;30.30;99.90;;;;;;5048233;28;20366;-64
2022/05/03 08:53:39;;;;;;;18.88;13.98;;;30.10;99.90;;;;;;5052075;28;20021;-64
2022/05/03 08:56:06;;;;;;;14.50;9.80;;;30.20;99.90;;;;;;5053174;28;20061;-64
2022/05/03 08:58:33;;;;;;;12.13;8.55;;;30.20;99.90;;;;;;5047986;28;20033;-63
2022/05/03 09:01:00;;;;;;;17.65;7.70;;;30.20;99.90;;;;;;5046953;28;20466;-63
2022/05/03 09:03:27;;;;;;;10.90;7.13;;;30.20;99.90;;;;;;5045846;28;20029;-64
2022/05/03 09:05:53;;;;;;;11.45;7.35;;;30.10;99.90;;;;;;5053357;28;20457;-65
2022/05/03 09:08:23;;;;;;;10.60;5.45;;;30.10;99.90;;;;;;5052088;28;20036;-65
2022/05/03 09:10:50;;;;;;;11.35;5.88;;;30.10;99.90;;;;;;5051989;28;20029;-63
2022/05/03 09:13:24;;;;;;;5.97;4.13;;;30.00;99.90;;;;;;5053333;28;20052;-63
2022/05/03 09:15:57;;;;;;;5.30;2.83;;;29.90;99.90;;;;;;5053442;28;20028;-63
2022/05/03 09:18:26;;;;;;;6.13;2.55;;;29.80;99.90;;;;;;5051976;28;20017;-62
2022/05/03 09:26:26;;;;;;;6.60;3.85;;;29.70;99.90;;;;;;5042468;28;20036;-62
2022/05/03 09:29:05;;;;;;;10.05;4.18;;;29.70;99.90;;;;;;5040813;28;20539;-63
2022/05/03 09:31:42;;;;;;;6.28;3.58;;;29.60;99.90;;;;;;5045023;28;20458;-63
2022/05/03 09:34:27;;;;;;;16.00;10.25;;;29.60;99.90;;;;;;5042374;28;20057;-63
2022/05/03 09:36:58;;;;;;;10.38;5.75;;;29.50;99.90;;;;;;5041506;28;20029;-63
2022/05/03 09:39:30;;;;;;;23.10;14.20;;;29.60;99.90;;;;;;5044180;28;20029;-63
2022/05/03 09:42:04;;;;;;;34.60;21.80;;;29.60;99.90;;;;;;5043539;28;20034;-63
2022/05/03 09:44:36;;;;;;;26.00;16.10;;;29.60;99.90;;;;;;5042172;28;20021;-64
2022/05/03 09:47:11;;;;;;;18.35;10.18;;;29.60;99.90;;;;;;5047681;28;20032;-63
2022/05/03 09:49:40;;;;;;;17.02;10.90;;;29.60;99.90;;;;;;5046560;28;20351;-63
2022/05/03 09:52:12;;;;;;;7.85;5.03;;;29.60;99.90;;;;;;5045171;28;20060;-61
2022/05/03 09:54:49;;;;;;;15.65;7.90;;;29.60;99.90;;;;;;5046736;28;20470;-63
2022/05/03 09:57:25;;;;;;;7.65;4.82;;;29.70;99.90;;;;;;5046434;28;20029;-63
2022/05/03 09:59:54;;;;;;;8.60;4.43;;;29.60;99.90;;;;;;5038408;28;20030;-63
2022/05/03 10:02:23;;;;;;;8.98;4.93;;;29.70;99.90;;;;;;5052454;28;20030;-63
2022/05/03 10:04:51;;;;;;;10.10;5.25;;;29.60;99.90;;;;;;5044013;28;20479;-63
2022/05/03 10:07:20;;;;;;;5.13;3.78;;;29.70;99.90;;;;;;5056451;28;20025;-63
2022/05/03 10:09:48;;;;;;;9.02;5.53;;;29.70;99.90;;;;;;5056583;28;20047;-63
2022/05/03 10:12:16;;;;;;;15.70;6.18;;;29.60;99.90;;;;;;5056013;28;20060;-64
2022/05/03 10:14:44;;;;;;;5.68;3.88;;;29.60;99.90;;;;;;5056316;28;20040;-63
2022/05/03 10:22:40;;;;;;;9.15;6.72;;;29.50;99.90;;;;;;5055851;28;20068;-62
2022/05/03 10:25:08;;;;;;;9.85;5.70;;;29.40;99.90;;;;;;5056113;28;20061;-65
2022/05/03 10:27:42;;;;;;;9.23;4.30;;;29.40;99.90;;;;;;5056464;28;20059;-66
2022/05/03 10:30:20;;;;;;;6.78;3.63;;;29.40;99.90;;;;;;5056292;28;20033;-65
2022/05/03 10:33:10;;;;;;;11.45;5.45;;;29.30;99.90;;;;;;5056262;28;20033;-64
2022/05/03 10:35:37;;;;;;;9.20;4.13;;;29.20;99.90;;;;;;5055989;28;20532;-62
2022/05/03 10:38:05;;;;;;;6.35;4.32;;;29.10;99.90;;;;;;5056297;28;20020;-62
2022/05/03 10:40:38;;;;;;;11.88;5.20;;;29.10;99.90;;;;;;5055945;28;20032;-63
2022/05/03 10:43:09;;;;;;;12.55;7.00;;;29.00;99.90;;;;;;5055991;28;20025;-63
2022/05/03 10:45:42;;;;;;;10.18;5.05;;;29.00;99.90;;;;;;5055958;28;20033;-63
2022/05/03 10:48:25;;;;;;;11.05;5.55;;;29.00;99.90;;;;;;5055838;28;20411;-64
2022/05/03 10:50:54;;;;;;;13.75;8.30;;;29.00;99.90;;;;;;5055721;28;20087;-63
2022/05/03 10:53:24;;;;;;;21.35;16.02;;;29.00;99.90;;;;;;5055371;28;20033;-64
2022/05/03 10:56:08;;;;;;;16.80;9.13;;;29.10;99.90;;;;;;5053709;28;20373;-63
2022/05/03 10:58:37;;;;;;;23.88;18.65;;;29.10;99.90;;;;;;5055303;28;20068;-63
2022/05/03 11:01:08;;;;;;;30.45;21.65;;;29.10;99.90;;;;;;5054869;28;20386;-63
2022/05/03 11:03:57;;;;;;;160.50;97.47;;;29.10;99.90;;;;;;5054936;28;20025;-63
2022/05/03 11:06:37;;;;;;;26.75;17.15;;;29.00;99.90;;;;;;5054158;28;20040;-63
2022/05/03 11:11:40;;;;;;;31.30;18.65;;;28.90;99.90;;;;;;5051752;28;20474;-62
2022/05/03 11:16:47;;;;;;;18.83;10.25;;;29.00;99.90;;;;;;5054745;28;20029;-63
2022/05/03 11:19:15;;;;;;;16.15;9.18;;;29.00;99.90;;;;;;5054155;28;20386;-63
2022/05/03 11:21:43;;;;;;;19.30;10.75;;;29.00;99.90;;;;;;5053900;28;20028;-64
2022/05/03 11:24:25;;;;;;;16.67;10.35;;;28.90;99.90;;;;;;5043159;28;20124;-64
2022/05/03 11:26:53;;;;;;;;;;;28.90;99.90;;;;;;5045102;28;20033;-63
2022/05/03 11:29:20;;;;;;;17.45;8.48;;;28.90;99.90;;;;;;5047551;28;19909;-62
2022/05/03 11:31:54;;;;;;;14.20;8.60;;;28.90;99.90;;;;;;5054513;28;20033;-64
2022/05/03 11:34:21;;;;;;;17.52;9.98;;;28.90;99.90;;;;;;5051227;28;20071;-62
2022/05/03 11:36:50;;;;;;;12.77;6.90;;;28.90;99.90;;;;;;5048090;28;20055;-62
2022/05/03 11:39:17;;;;;;;7.82;6.63;;;28.90;99.90;;;;;;5054359;28;20033;-63
2022/05/03 11:41:45;;;;;;;9.60;6.57;;;28.80;99.90;;;;;;5052813;28;20377;-64
2022/05/03 11:44:12;;;;;;;11.02;6.35;;;28.80;99.90;;;;;;5053435;28;20099;-62
2022/05/03 11:46:40;;;;;;;10.75;6.60;;;28.80;99.90;;;;;;5043295;28;20029;-62
2022/05/03 11:49:09;;;;;;;9.02;5.85;;;28.80;99.90;;;;;;5034391;28;20425;-63
2022/05/03 11:57:19;;;;;;;11.10;5.57;;;28.80;99.90;;;;;;5053156;28;20017;-63
2022/05/03 11:59:48;;;;;;;9.73;5.75;;;28.80;99.90;;;;;;5050964;28;20469;-63
2022/05/03 12:02:20;;;;;;;9.20;5.63;;;28.80;99.90;;;;;;5053514;28;20037;-64
2022/05/03 12:04:58;;;;;;;;;;;28.80;99.90;;;;;;5052483;28;20057;-63
2022/05/03 12:07:24;;;;;;;9.20;5.30;;;28.80;99.90;;;;;;5051873;28;19924;-64
2022/05/03 12:09:51;;;;;;;11.82;5.53;;;28.70;99.90;;;;;;5053424;28;20040;-63
2022/05/03 12:15:13;;;;;;;8.77;5.28;;;28.70;99.90;;;;;;5028024;28;20437;-63
2022/05/03 12:17:54;;;;;;;7.90;4.60;;;28.60;99.90;;;;;;5048950;28;20052;-63
2022/05/03 12:20:21;;;;;;;10.02;5.70;;;28.50;99.90;;;;;;5050943;28;20033;-63
2022/05/03 12:23:09;;;;;;;11.88;5.03;;;28.60;99.90;;;;;;5052162;28;20052;-63
2022/05/03 12:25:38;;;;;;;9.75;4.05;;;28.50;99.90;;;;;;5052778;28;20033;-63
2022/05/03 12:28:06;;;;;;;9.05;4.68;;;28.50;99.90;;;;;;5046578;28;20139;-63
2022/05/03 12:30:34;;;;;;;8.65;4.90;;;28.40;99.90;;;;;;5052703;28;20029;-63
2022/05/03 12:33:06;;;;;;;19.58;9.48;;;28.40;99.90;;;;;;5051765;28;20025;-62
2022/05/03 12:35:33;;;;;;;;;;;28.50;99.90;;;;;;5052914;28;20108;-65
2022/05/03 12:38:13;;;;;;;13.25;6.65;;;28.40;99.90;;;;;;5052928;28;19908;-65
2022/05/03 12:40:57;;;;;;;15.05;7.25;;;28.40;99.90;;;;;;5052483;28;20390;-63
2022/05/03 12:43:26;;;;;;;7.82;4.47;;;28.30;99.90;;;;;;5052903;28;20051;-64
2022/05/03 12:46:01;;;;;;;9.48;4.45;;;28.30;99.90;;;;;;5051350;28;20033;-64
2022/05/03 12:48:31;;;;;;;6.38;4.32;;;28.20;99.90;;;;;;5051610;28;20051;-63
2022/05/03 12:50:59;;;;;;;8.00;4.68;;;28.10;99.90;;;;;;5051492;28;20028;-64
2022/05/03 12:53:31;;;;;;;13.48;5.57;;;28.20;99.90;;;;;;5052636;28;20057;-65
2022/05/03 12:58:21;;;;;;;8.27;5.38;;;28.20;99.90;;;;;;5050970;28;20033;-64
2022/05/03 12:58:45;;;;;;;10.75;5.40;;;28.20;99.90;;;;;;5052539;28;20041;-64
2022/05/03 13:01:12;;;;;;;13.15;4.85;;;28.20;99.90;;;;;;5051920;28;20468;-64
2022/05/03 13:03:39;;;;;;;17.13;7.43;;;28.20;99.90;;;;;;5045549;28;20140;-64
2022/05/03 13:06:06;;;;;;;12.60;6.05;;;28.20;99.90;;;;;;5047285;28;20029;-64
2022/05/03 13:08:33;;;;;;;6.60;4.63;;;28.20;99.90;;;;;;5053218;28;20032;-64
2022/05/03 13:11:00;;;;;;;12.73;4.68;;;28.20;99.90;;;;;;5052923;28;20386;-64
2022/05/03 13:13:28;;;;;;;8.18;5.63;;;28.20;99.90;;;;;;5052948;28;20028;-64
2022/05/03 13:15:55;;;;;;;8.77;4.85;;;28.20;99.90;;;;;;5051134;28;20040;-63
2022/05/03 13:18:22;;;;;;;8.80;5.03;;;28.10;99.90;;;;;;5052986;28;20033;-63
2022/05/03 13:20:48;;;;;;;9.52;6.13;;;28.10;99.90;;;;;;5054702;28;20044;-63
2022/05/03 13:23:15;;;;;;;11.00;5.30;;;28.10;99.90;;;;;;5056613;28;20523;-63
2022/05/03 13:25:42;;;;;;;6.63;3.78;;;28.10;99.90;;;;;;5055029;28;20041;-64
2022/05/03 13:28:09;;;;;;;6.80;3.85;;;28.00;99.90;;;;;;5053715;28;20032;-65
2022/05/03 13:30:36;;;;;;;10.07;4.15;;;27.90;99.90;;;;;;5056338;28;20041;-63
2022/05/03 13:33:03;;;;;;;7.63;3.65;;;27.90;99.90;;;;;;5055942;28;20037;-64
2022/05/03 13:40:49;;;;;;;11.75;4.40;;;28.00;99.90;;;;;;5055784;28;20029;-66